Time;durP1;ratioP1;P1;durP2;ratioP2;P2;SDS_P1;SDS_P2;PMS_P1;PMS_P2;Temp;Humidity;BMP_temperature;BMP_pressure;BME280_temperature;BME280_humidity;BME280_pressure;Samples;Min_cycle;Max_cycle;Signal;HPM_P1;HPM_P2
2023/01/03 00:02:30;;;;;;;9.10;6.90;;;;;;;7.87;81.78;97199.27;105435;1298;48362;-80
2023/01/03 00:05:02;;;;;;;11.70;7.20;;;;;;;7.82;81.59;97197.95;105521;1304;24976;-80
2023/01/03 00:07:36;;;;;;;10.40;7.40;;;;;;;7.77;81.90;97200.49;105562;1288;25265;-80
2023/01/03 00:10:10;;;;;;;11.60;8.30;;;;;;;7.72;81.96;97206.08;105541;1302;22465;-80
2023/01/03 00:12:41;;;;;;;11.10;7.20;;;;;;;7.69;82.03;97207.84;105468;1290;47336;-80
2023/01/03 00:15:14;;;;;;;10.40;7.20;;;;;;;7.65;82.02;97209.73;105532;1297;22572;-80
2023/01/03 00:17:45;;;;;;;12.10;7.50;;;;;;;7.61;82.14;97207.16;105517;1303;22526;-80
2023/01/03 00:20:16;;;;;;;10.40;7.20;;;;;;;7.58;82.16;97204.52;105543;1296;22516;-80
2023/01/03 00:22:47;;;;;;;11.40;7.30;;;;;;;7.56;82.12;97208.60;105623;1289;22501;-80
2023/01/03 00:25:18;;;;;;;10.00;6.80;;;;;;;7.53;82.20;97210.84;105520;1284;22510;-80
2023/01/03 00:27:49;;;;;;;12.90;8.30;;;;;;;7.51;82.44;97212.46;105562;1304;22563;-80
2023/01/03 00:30:23;;;;;;;9.60;6.30;;;;;;;7.51;82.43;97221.05;105512;1304;22604;-80
2023/01/03 00:32:54;;;;;;;10.30;7.30;;;;;;;7.49;82.75;97222.41;105491;1281;46732;-80
2023/01/03 00:35:25;;;;;;;11.50;7.80;;;;;;;7.49;82.98;97229.63;105424;1290;24261;-85
2023/01/03 00:37:58;;;;;;;10.60;7.50;;;;;;;7.47;82.84;97239.00;105533;1305;22725;-85
2023/01/03 00:40:29;;;;;;;10.30;7.70;;;;;;;7.48;82.79;97244.39;105323;1273;22990;-80
2023/01/03 00:45:49;;;;;;;8.50;6.30;;;;;;;7.49;82.80;97251.16;105419;1303;22491;-80
2023/01/03 00:48:20;;;;;;;10.10;6.60;;;;;;;7.51;82.74;97254.19;105523;1287;22475;-80
2023/01/03 00:50:51;;;;;;;9.10;6.30;;;;;;;7.56;82.64;97253.98;105520;1304;22504;-80
2023/01/03 00:53:22;;;;;;;9.20;6.50;;;;;;;7.57;82.63;97254.05;105471;1304;37546;-80
2023/01/03 00:55:54;;;;;;;11.10;6.90;;;;;;;7.57;82.70;97258.11;105552;1298;24437;-80
2023/01/03 00:58:25;;;;;;;10.10;6.30;;;;;;;7.57;82.52;97256.01;105536;1288;25476;-80
2023/01/03 01:00:56;;;;;;;10.60;6.50;;;;;;;7.57;82.44;97257.11;105530;1305;22466;-80
2023/01/03 01:03:28;;;;;;;10.80;6.90;;;;;;;7.56;82.36;97258.11;105538;1301;29806;-80
2023/01/03 01:05:59;;;;;;;9.40;5.40;;;;;;;7.51;82.63;97260.41;105425;1290;22583;-81
2023/01/03 01:08:30;;;;;;;9.60;6.80;;;;;;;7.43;82.94;97264.52;105540;1296;24268;-80
2023/01/03 01:11:03;;;;;;;9.20;6.40;;;;;;;7.43;82.92;97265.41;105551;1296;25048;-80
2023/01/03 01:13:35;;;;;;;10.90;6.40;;;;;;;7.43;83.07;97264.14;105485;1304;25919;-80
2023/01/03 01:16:10;;;;;;;8.20;5.60;;;;;;;7.44;82.91;97265.36;105516;1301;22491;-80
2023/01/03 01:18:42;;;;;;;8.70;5.90;;;;;;;7.42;82.69;97266.35;105524;1288;23807;-80
2023/01/03 01:21:15;;;;;;;10.60;6.20;;;;;;;7.39;82.90;97262.50;105464;1304;22459;-80
2023/01/03 01:23:47;;;;;;;9.60;6.40;;;;;;;7.36;82.82;97269.91;105595;1294;24597;-81
2023/01/03 01:26:20;;;;;;;9.80;6.40;;;;;;;7.35;82.64;97274.32;105568;1293;22496;-80
2023/01/03 01:28:54;;;;;;;9.70;6.70;;;;;;;7.28;82.64;97271.45;105607;1287;23388;-80
2023/01/03 01:31:28;;;;;;;9.60;6.30;;;;;;;7.25;82.51;97270.95;105542;1295;22593;-81
2023/01/03 01:34:02;;;;;;;8.20;5.60;;;;;;;7.23;82.40;97275.19;105487;1303;25422;-81
2023/01/03 01:36:36;;;;;;;8.60;5.60;;;;;;;7.19;82.11;97280.92;105548;1304;23955;-81
2023/01/03 01:39:13;;;;;;;8.50;5.90;;;;;;;7.14;82.23;97288.48;105529;1295;22488;-81
2023/01/03 01:44:53;;;;;;;8.30;6.40;;;;;;;7.15;82.54;97288.86;105487;1303;56337;-81
2023/01/03 01:47:33;;;;;;;7.50;5.40;;;;;;;7.13;82.78;97289.27;105518;1280;22532;-81
2023/01/03 01:50:15;;;;;;;8.70;5.90;;;;;;;7.13;82.68;97292.90;105572;1280;22476;-81
2023/01/03 01:52:49;;;;;;;7.90;5.60;;;;;;;7.13;82.76;97296.59;105452;1273;26832;-80
2023/01/03 01:55:26;;;;;;;7.80;5.50;;;;;;;7.14;82.73;97294.88;105471;1277;22469;-81
2023/01/03 01:57:57;;;;;;;7.50;6.10;;;;;;;7.15;82.66;97300.48;105425;1280;22469;-80
2023/01/03 02:00:28;;;;;;;7.00;5.00;;;;;;;7.14;82.61;97299.52;105434;1287;22489;-81
2023/01/03 02:02:59;;;;;;;8.10;5.50;;;;;;;7.17;82.59;97293.05;105424;1281;49991;-80
2023/01/03 02:05:32;;;;;;;10.30;5.30;;;;;;;7.18;82.35;97292.86;105586;1280;22474;-81
2023/01/03 02:08:04;;;;;;;6.60;4.70;;;;;;;7.17;82.23;97293.32;105564;1280;23033;-81
2023/01/03 02:10:51;;;;;;;8.30;5.30;;;;;;;7.18;82.32;97292.15;105567;1281;22437;-81
2023/01/03 02:13:29;;;;;;;9.40;4.90;;;;;;;7.19;82.36;97297.55;105572;1288;31773;-81
2023/01/03 02:16:14;;;;;;;7.90;5.20;;;;;;;7.20;82.20;97299.93;105571;1280;22923;-81
2023/01/03 02:18:54;;;;;;;7.90;5.00;;;;;;;7.19;82.14;97297.45;105528;1280;25429;-81
2023/01/03 02:22:00;;;;;;;8.00;5.00;;;;;;;7.23;82.33;97303.02;105586;1281;22507;-82
2023/01/03 02:24:56;;;;;;;8.50;5.10;;;;;;;7.23;81.98;97313.16;105383;1280;30139;-81
2023/01/03 02:27:54;;;;;;;8.00;5.20;;;;;;;7.21;82.08;97315.02;105426;1280;22645;-81
2023/01/03 02:30:35;;;;;;;8.60;5.40;;;;;;;7.21;82.11;97309.86;105405;1283;22468;-81
2023/01/03 02:33:11;;;;;;;;;;;;;;;7.19;82.07;97311.88;104052;1279;2032482;-81
2023/01/03 02:35:52;;;;;;;7.50;4.70;;;;;;;7.17;81.96;97316.95;105583;1284;22467;-81
2023/01/03 02:38:36;;;;;;;9.60;5.00;;;;;;;7.14;81.81;97321.77;105570;1286;22467;-81
2023/01/03 02:41:16;;;;;;;10.30;5.00;;;;;;;7.13;81.94;97320.33;105545;1286;22558;-81
2023/01/03 02:43:53;;;;;;;8.90;4.90;;;;;;;7.14;81.85;97325.40;105404;1286;23965;-81
2023/01/03 02:46:30;;;;;;;7.30;4.40;;;;;;;7.06;81.58;97323.48;105405;1281;22471;-81
2023/01/03 02:49:08;;;;;;;6.00;4.00;;;;;;;7.00;81.72;97326.64;105404;1291;24049;-81
2023/01/03 02:51:44;;;;;;;6.10;4.00;;;;;;;7.02;82.37;97324.79;105384;1280;22460;-81
2023/01/03 02:54:22;;;;;;;7.10;4.20;;;;;;;7.09;82.37;97329.86;105416;1277;37917;-80
2023/01/03 02:56:59;;;;;;;6.60;4.00;;;;;;;7.22;82.41;97325.44;105403;1281;22483;-80
2023/01/03 02:59:37;;;;;;;5.90;4.00;;;;;;;7.25;82.25;97326.70;105511;1279;23336;-80
2023/01/03 03:02:10;;;;;;;7.10;4.80;;;;;;;7.27;82.14;97325.03;105363;1303;22525;-80
2023/01/03 03:04:46;;;;;;;7.40;4.40;;;;;;;7.30;82.24;97332.13;105492;1300;30074;-81
2023/01/03 03:07:22;;;;;;;6.20;3.70;;;;;;;7.33;82.09;97333.21;105539;1271;22493;-81
2023/01/03 03:15:49;;;;;;;6.30;3.60;;;;;;;7.54;81.80;97342.20;105620;1281;25449;-81
2023/01/03 03:18:32;;;;;;;4.90;3.40;;;;;;;7.57;81.70;97341.49;105611;1280;22878;-80
2023/01/03 03:28:33;;;;;;;4.60;3.40;;;;;;;7.73;81.57;97338.84;105099;1283;22479;-81
2023/01/03 03:30:01;;;;;;;6.40;3.10;;;;;;;7.80;81.50;97333.92;105447;1290;24271;-81
2023/01/03 03:32:35;;;;;;;5.90;3.40;;;;;;;7.88;81.47;97337.16;105462;1281;48448;-81
2023/01/03 03:35:11;;;;;;;4.70;2.90;;;;;;;7.96;81.20;97339.70;105415;1280;22606;-81
2023/01/03 03:37:46;;;;;;;6.60;3.40;;;;;;;8.05;81.15;97341.63;105414;1277;25386;-80
2023/01/03 03:46:12;;;;;;;5.40;3.00;;;;;;;8.26;80.50;97350.23;105436;1288;22589;-81
2023/01/03 03:51:42;;;;;;;4.70;2.90;;;;;;;8.36;80.07;97349.91;105409;1288;22464;-81
2023/01/03 03:54:22;;;;;;;4.60;2.70;;;;;;;8.42;80.00;97348.87;105429;1288;52412;-81
2023/01/03 03:57:00;;;;;;;4.40;2.70;;;;;;;8.46;79.71;97352.69;105376;1280;24661;-81
2023/01/03 03:59:33;;;;;;;3.80;2.80;;;;;;;8.49;79.60;97353.67;105451;1280;22990;-81
2023/01/03 04:02:06;;;;;;;4.80;2.70;;;;;;;8.52;79.45;97355.45;105399;1302;22458;-81
2023/01/03 04:04:43;;;;;;;5.30;3.20;;;;;;;8.55;79.34;97355.27;105413;1288;26583;-81
2023/01/03 04:07:16;;;;;;;6.10;3.60;;;;;;;8.57;79.12;97356.92;105440;1281;22645;-81
2023/01/03 04:09:47;;;;;;;5.20;3.60;;;;;;;8.59;78.85;97358.81;105434;1282;25500;-82
2023/01/03 04:12:18;;;;;;;4.90;2.80;;;;;;;8.62;78.84;97361.81;105407;1280;25242;-81
2023/01/03 04:14:49;;;;;;;6.50;3.40;;;;;;;8.64;78.81;97368.39;105548;1280;35790;-82
2023/01/03 04:17:26;;;;;;;5.70;3.10;;;;;;;8.67;78.66;97371.11;105544;1286;22473;-81
2023/01/03 04:19:57;;;;;;;3.60;2.90;;;;;;;8.68;78.41;97376.56;105581;1287;22469;-81
2023/01/03 04:22:28;;;;;;;5.90;3.10;;;;;;;8.69;78.42;97378.64;105525;1286;29193;-81
2023/01/03 04:24:59;;;;;;;5.10;2.90;;;;;;;8.69;78.32;97386.68;105575;1278;22465;-81
2023/01/03 04:27:31;;;;;;;4.30;2.80;;;;;;;8.69;78.35;97391.44;105552;1280;23889;-81
2023/01/03 04:30:02;;;;;;;4.50;3.00;;;;;;;8.69;78.22;97395.34;105559;1280;24247;-81
2023/01/03 04:32:36;;;;;;;5.80;2.80;;;;;;;8.68;78.26;97402.16;105519;1280;25401;-82
2023/01/03 04:35:08;;;;;;;4.70;3.10;;;;;;;8.70;78.24;97408.72;105563;1281;22478;-82
2023/01/03 04:37:40;;;;;;;5.60;2.90;;;;;;;8.72;78.22;97409.75;105545;1287;22483;-82
2023/01/03 04:40:13;;;;;;;4.10;2.50;;;;;;;8.73;78.07;97415.60;105612;1280;24357;-81
2023/01/03 04:45:40;;;;;;;6.50;3.20;;;;;;;8.84;78.02;97428.20;105569;1288;23155;-81
2023/01/03 04:48:12;;;;;;;5.50;3.10;;;;;;;8.87;77.82;97425.92;105574;1286;22466;-81
2023/01/03 04:50:50;;;;;;;6.60;2.50;;;;;;;8.89;77.79;97438.05;105583;1287;22468;-81
2023/01/03 04:53:25;;;;;;;6.30;3.20;;;;;;;8.91;77.94;97427.87;105488;1281;39681;-81
2023/01/03 04:55:57;;;;;;;5.10;2.90;;;;;;;9.09;77.99;97432.83;105587;1271;22492;-81
2023/01/03 04:58:28;;;;;;;6.00;2.80;;;;;;;9.16;77.53;97439.31;105583;1284;25262;-81
2023/01/03 05:01:03;;;;;;;4.50;3.10;;;;;;;9.20;77.53;97437.88;105601;1288;24254;-81
2023/01/03 05:03:34;;;;;;;5.60;3.00;;;;;;;9.22;77.23;97442.06;105517;1288;22455;-81
2023/01/03 05:06:08;;;;;;;6.90;3.70;;;;;;;9.21;76.97;97447.23;105552;1290;22518;-81
2023/01/03 05:08:39;;;;;;;5.00;3.00;;;;;;;9.22;77.06;97449.73;105555;1296;22606;-81
2023/01/03 05:11:10;;;;;;;6.60;3.80;;;;;;;9.24;76.88;97451.18;105540;1296;24238;-81
2023/01/03 05:13:41;;;;;;;7.60;5.20;;;;;;;9.29;76.90;97440.13;105546;1289;25218;-81
2023/01/03 05:16:14;;;;;;;8.40;4.30;;;;;;;9.38;76.91;97439.48;105624;1294;24269;-80
2023/01/03 05:18:46;;;;;;;9.20;4.40;;;;;;;9.41;76.77;97439.23;105644;1295;25421;-81
2023/01/03 05:27:02;;;;;;;8.80;4.10;;;;;;;9.42;76.60;97447.61;105519;1303;24276;-81
2023/01/03 05:29:37;;;;;;;8.00;3.90;;;;;;;9.43;76.50;97455.41;105559;1294;22509;-81
2023/01/03 05:32:08;;;;;;;7.70;3.50;;;;;;;9.43;76.45;97448.70;105554;1281;23701;-81
2023/01/03 05:34:39;;;;;;;9.20;4.70;;;;;;;9.44;76.37;97447.02;105769;1294;28059;-81
2023/01/03 05:37:10;;;;;;;8.60;4.30;;;;;;;9.44;76.49;97453.10;105715;1296;25450;-81
2023/01/03 05:39:41;;;;;;;8.70;3.80;;;;;;;9.44;76.43;97460.13;105650;1287;22503;-81
2023/01/03 05:42:12;;;;;;;7.80;4.50;;;;;;;9.42;76.32;97458.03;105618;1302;24674;-82
2023/01/03 05:44:44;;;;;;;6.20;3.70;;;;;;;9.42;76.38;97465.17;105531;1281;23828;-81
2023/01/03 05:47:15;;;;;;;7.30;4.20;;;;;;;9.41;76.37;97473.80;105560;1302;22504;-81
2023/01/03 05:49:46;;;;;;;5.90;3.80;;;;;;;9.39;76.42;97466.95;105617;1280;22713;-81
2023/01/03 05:52:17;;;;;;;7.30;4.60;;;;;;;9.37;76.48;97471.70;105614;1302;22621;-81
2023/01/03 05:54:48;;;;;;;6.90;3.90;;;;;;;9.34;76.50;97472.42;105649;1300;68964;-81
2023/01/03 05:57:20;;;;;;;7.00;3.40;;;;;;;9.32;76.61;97475.46;105783;1285;24209;-81
2023/01/03 05:59:53;;;;;;;7.00;3.00;;;;;;;9.30;76.70;97475.17;105808;1295;22514;-81
2023/01/03 06:02:24;;;;;;;6.50;4.10;;;;;;;9.27;76.86;97479.57;105655;1300;39807;-81
2023/01/03 06:04:56;;;;;;;6.40;3.60;;;;;;;9.26;76.93;97475.27;105548;1295;22509;-81
2023/01/03 06:07:29;;;;;;;6.60;4.40;;;;;;;9.23;77.08;97475.46;105545;1304;22509;-82
2023/01/03 06:10:01;;;;;;;6.20;4.00;;;;;;;9.22;77.00;97484.45;105575;1286;22520;-82
2023/01/03 06:12:32;;;;;;;5.40;4.20;;;;;;;9.20;77.19;97491.46;105527;1303;22808;-81
2023/01/03 06:15:04;;;;;;;6.00;4.10;;;;;;;9.18;77.39;97490.92;105523;1297;23084;-81
2023/01/03 06:20:23;;;;;;;9.20;3.90;;;;;;;9.15;77.57;97503.36;105534;1296;22474;-81
2023/01/03 06:22:56;;;;;;;7.00;3.70;;;;;;;9.14;77.60;97515.61;105550;1293;25225;-81
2023/01/03 06:25:29;;;;;;;6.40;3.90;;;;;;;9.10;77.68;97520.39;105633;1290;22499;-82
2023/01/03 06:28:00;;;;;;;5.70;3.10;;;;;;;9.06;77.61;97524.95;105649;1288;24661;-81
2023/01/03 06:30:31;;;;;;;5.80;3.10;;;;;;;9.05;77.90;97529.44;105583;1302;22501;-81
2023/01/03 06:33:02;;;;;;;5.40;3.00;;;;;;;9.03;77.77;97535.59;105690;1293;31271;-81
2023/01/03 06:35:34;;;;;;;5.20;3.70;;;;;;;9.01;77.73;97539.63;105604;1288;22465;-80
2023/01/03 06:38:05;;;;;;;6.20;3.70;;;;;;;8.98;77.72;97543.97;105778;1300;22461;-81
2023/01/03 06:40:37;;;;;;;8.60;3.90;;;;;;;8.95;77.81;97546.58;105873;1295;22530;-80
2023/01/03 06:43:08;;;;;;;6.00;3.50;;;;;;;8.91;77.89;97547.77;105715;1295;46846;-80
2023/01/03 06:54:09;;;;;;;6.10;3.80;;;;;;;8.81;78.31;97565.34;105443;1302;35010;-80
2023/01/03 06:56:40;;;;;;;6.20;3.80;;;;;;;8.79;78.32;97567.48;105544;1305;22503;-80
2023/01/03 06:59:11;;;;;;;6.80;3.30;;;;;;;8.79;78.27;97572.66;105574;1287;25260;-80
2023/01/03 07:01:43;;;;;;;6.50;3.80;;;;;;;8.75;78.50;97576.95;105528;1290;22780;-81
2023/01/03 07:04:15;;;;;;;6.20;3.90;;;;;;;8.74;78.59;97575.03;105581;1291;45590;-81
2023/01/03 07:06:46;;;;;;;8.20;4.30;;;;;;;8.74;78.63;97585.92;105663;1292;23018;-81
2023/01/03 07:09:18;;;;;;;5.20;3.30;;;;;;;8.72;78.75;97585.56;105640;1288;22456;-81
2023/01/03 07:11:50;;;;;;;5.80;4.00;;;;;;;8.70;78.74;97590.70;105644;1288;22503;-80
2023/01/03 07:14:21;;;;;;;6.10;3.30;;;;;;;8.66;78.93;97589.33;105560;1281;22852;-80
2023/01/03 07:16:55;;;;;;;6.20;3.60;;;;;;;8.63;79.04;97597.11;105655;1293;23718;-81
2023/01/03 07:19:26;;;;;;;4.20;3.20;;;;;;;8.61;78.85;97597.04;105628;1285;22485;-81
2023/01/03 07:21:57;;;;;;;4.20;3.00;;;;;;;8.59;78.79;97597.73;105609;1281;22819;-80
2023/01/03 07:24:28;;;;;;;4.00;2.40;;;;;;;8.55;78.65;97602.79;105571;1294;46924;-80
2023/01/03 07:26:59;;;;;;;5.40;2.40;;;;;;;8.50;78.35;97604.52;105631;1280;22458;-81
2023/01/03 07:29:30;;;;;;;3.20;2.50;;;;;;;8.47;78.24;97612.24;105620;1302;25045;-80
2023/01/03 07:32:01;;;;;;;3.70;2.80;;;;;;;8.44;78.24;97618.00;105561;1287;25004;-81
2023/01/03 07:34:33;;;;;;;5.50;3.20;;;;;;;8.43;78.44;97618.08;105539;1281;40653;-80
2023/01/03 07:37:04;;;;;;;5.60;3.30;;;;;;;8.39;78.80;97621.25;105630;1274;22507;-81
2023/01/03 07:39:35;;;;;;;4.70;2.40;;;;;;;8.36;79.20;97618.92;105654;1287;22466;-81
2023/01/03 07:44:57;;;;;;;6.00;3.60;;;;;;;8.29;79.94;97625.10;105719;1303;22666;-78
2023/01/03 07:47:29;;;;;;;6.90;3.90;;;;;;;8.27;80.46;97627.94;105399;1293;22507;-78
2023/01/03 07:50:00;;;;;;;8.20;5.00;;;;;;;8.26;80.66;97630.50;105467;1298;25314;-79
2023/01/03 07:52:31;;;;;;;7.80;5.00;;;;;;;8.26;80.94;97634.73;105398;1293;25186;-78
2023/01/03 07:55:02;;;;;;;6.60;4.70;;;;;;;8.26;80.87;97643.50;105396;1281;22456;-78
2023/01/03 07:57:33;;;;;;;8.70;6.20;;;;;;;8.28;81.15;97646.49;105387;1303;25386;-78
2023/01/03 08:00:07;;;;;;;8.00;5.50;;;;;;;8.27;81.22;97649.80;105371;1288;22481;-78
2023/01/03 08:02:38;;;;;;;9.90;6.80;;;;;;;8.28;81.34;97647.02;105332;1294;22465;-78
2023/01/03 08:05:10;;;;;;;9.30;6.30;;;;;;;8.29;81.39;97652.54;105182;1305;22686;-79
2023/01/03 08:07:42;;;;;;;8.60;5.70;;;;;;;8.28;81.44;97654.95;105207;1288;22575;-78
2023/01/03 08:13:20;;;;;;;10.60;7.30;;;;;;;8.28;81.41;97657.10;105257;1287;22462;-79
2023/01/03 08:15:55;;;;;;;8.20;5.90;;;;;;;8.27;81.49;97659.64;105243;1288;22524;-79
2023/01/03 08:18:27;;;;;;;9.80;7.10;;;;;;;8.27;81.68;97662.33;105256;1295;24301;-79
2023/01/03 08:20:59;;;;;;;10.70;6.70;;;;;;;8.26;81.85;97665.37;105250;1293;26271;-79
2023/01/03 08:23:32;;;;;;;9.30;6.00;;;;;;;8.25;82.08;97662.71;105573;1302;23393;-79
2023/01/03 08:26:04;;;;;;;10.00;6.00;;;;;;;8.24;82.19;97670.30;105551;1287;25282;-79
2023/01/03 08:28:36;;;;;;;9.80;6.50;;;;;;;8.23;82.28;97672.83;105457;1305;22613;-78
2023/01/03 08:31:11;;;;;;;9.00;6.30;;;;;;;8.22;82.32;97669.49;105520;1288;22494;-79
2023/01/03 08:33:47;;;;;;;7.30;4.70;;;;;;;8.23;82.22;97671.29;105543;1287;87189;-80
2023/01/03 08:36:19;;;;;;;6.30;4.00;;;;;;;8.23;82.24;97665.75;105693;1302;22465;-79
2023/01/03 08:38:53;;;;;;;5.30;4.00;;;;;;;8.24;81.96;97666.67;105727;1294;22460;-79
2023/01/03 08:41:28;;;;;;;6.30;4.50;;;;;;;8.27;81.83;97663.38;105661;1302;22502;-79
2023/01/03 08:44:02;;;;;;;5.30;3.50;;;;;;;8.31;81.59;97662.90;105700;1302;29084;-79
2023/01/03 08:46:35;;;;;;;5.50;3.90;;;;;;;8.36;81.37;97669.55;105637;1302;22501;-79
2023/01/03 08:49:06;;;;;;;6.70;3.90;;;;;;;8.40;81.45;97670.83;105682;1302;22514;-80
2023/01/03 08:51:37;;;;;;;5.70;4.30;;;;;;;8.45;81.37;97671.77;105696;1302;25215;-80
2023/01/03 08:54:08;;;;;;;6.80;3.80;;;;;;;8.51;81.11;97670.39;105759;1294;24431;-81
2023/01/03 08:56:42;;;;;;;5.30;3.60;;;;;;;8.56;80.75;97670.78;105687;1303;22505;-80
2023/01/03 08:59:13;;;;;;;5.30;3.30;;;;;;;8.62;80.56;97668.36;105632;1293;22461;-79
2023/01/03 09:01:44;;;;;;;5.50;3.50;;;;;;;8.69;80.14;97667.09;105691;1291;22518;-81
2023/01/03 09:04:15;;;;;;;7.20;3.80;;;;;;;8.74;79.91;97667.29;105521;1303;22483;-81
2023/01/03 09:06:46;;;;;;;6.10;3.80;;;;;;;8.82;79.82;97669.84;105556;1281;22513;-80
2023/01/03 09:09:17;;;;;;;6.00;3.80;;;;;;;8.88;79.47;97667.47;105634;1303;22203;-81
2023/01/03 09:11:51;;;;;;;5.90;3.20;;;;;;;8.89;78.93;97670.55;105550;1303;30647;-81
2023/01/03 09:14:22;;;;;;;5.20;3.70;;;;;;;8.89;78.71;97673.52;105554;1294;26026;-81
2023/01/03 09:16:52;;;;;;;6.70;3.90;;;;;;;8.88;78.49;97676.41;105523;1297;22523;-80
2023/01/03 09:19:26;;;;;;;6.50;3.60;;;;;;;8.81;78.24;97675.85;105552;1300;22554;-81
2023/01/03 09:21:57;;;;;;;6.00;3.60;;;;;;;8.71;78.02;97673.11;105644;1286;39042;-80
2023/01/03 09:24:30;;;;;;;6.30;4.10;;;;;;;8.63;77.89;97672.92;105777;1295;22645;-81
2023/01/03 09:27:01;;;;;;;6.40;3.40;;;;;;;8.57;78.01;97678.95;105731;1278;25204;-81
2023/01/03 09:29:32;;;;;;;6.30;3.70;;;;;;;8.54;78.10;97678.64;105859;1288;22505;-81
2023/01/03 09:32:09;;;;;;;5.30;3.70;;;;;;;8.53;78.10;97680.73;105824;1294;22840;-81
2023/01/03 09:34:40;;;;;;;6.10;3.30;;;;;;;8.54;77.87;97686.88;105659;1302;37823;-81
2023/01/03 09:37:11;;;;;;;5.70;3.90;;;;;;;8.51;77.74;97686.14;105685;1281;22446;-80
2023/01/03 09:39:42;;;;;;;7.00;4.60;;;;;;;8.50;77.94;97682.23;105686;1286;22667;-81
2023/01/03 09:45:15;;;;;;;4.60;2.80;;;;;;;8.45;77.85;97677.84;105729;1300;22505;-80
2023/01/03 09:47:47;;;;;;;5.80;3.70;;;;;;;8.37;77.44;97671.63;105723;1301;22697;-81
2023/01/03 09:50:23;;;;;;;6.00;3.50;;;;;;;8.29;77.74;97675.53;105718;1291;22489;-81
2023/01/03 10:05:23;;;;;;;5.60;3.00;;;;;;;8.13;77.95;97661.43;105779;1286;45385;-81
2023/01/03 10:08:22;;;;;;;5.20;2.90;;;;;;;8.08;78.24;97663.57;105788;1284;22486;-81
2023/01/03 10:11:05;;;;;;;4.00;2.60;;;;;;;8.07;78.36;97669.69;105823;1278;22509;-81
2023/01/03 10:14:05;;;;;;;5.00;3.10;;;;;;;8.10;78.35;97669.63;105668;1286;51145;-80
2023/01/03 10:16:47;;;;;;;3.70;2.60;;;;;;;8.18;78.61;97675.17;105597;1287;23185;-81
2023/01/03 10:19:53;;;;;;;6.40;3.20;;;;;;;8.25;78.39;97675.25;105624;1287;22542;-81
2023/01/03 10:22:28;;;;;;;5.30;2.90;;;;;;;8.35;78.05;97674.38;105580;1286;22471;-79
2023/01/03 10:25:10;;;;;;;5.00;2.90;;;;;;;8.47;77.77;97673.48;106044;1290;60395;-81
2023/01/03 10:27:50;;;;;;;6.20;3.30;;;;;;;8.57;77.14;97668.16;105642;1299;23062;-81
2023/01/03 10:30:45;;;;;;;4.90;2.80;;;;;;;8.67;76.46;97672.92;105760;1303;22450;-81
2023/01/03 10:33:32;;;;;;;4.50;3.00;;;;;;;8.72;75.78;97672.76;105566;1300;24287;-81
2023/01/03 10:36:03;;;;;;;5.20;3.10;;;;;;;8.70;75.16;97676.98;105746;1286;22458;-82
2023/01/03 10:38:38;;;;;;;5.00;3.30;;;;;;;8.62;74.96;97676.70;105633;1291;24260;-82
2023/01/03 10:41:20;;;;;;;3.00;1.90;;;;;;;8.53;75.22;97682.47;105668;1305;22449;-82
2023/01/03 10:44:00;;;;;;;4.50;3.00;;;;;;;8.43;75.05;97683.47;105727;1289;26532;-83
2023/01/03 10:46:32;;;;;;;3.40;2.30;;;;;;;8.33;75.18;97679.00;105807;1286;22774;-81
2023/01/03 10:49:19;;;;;;;3.40;2.60;;;;;;;8.24;74.86;97673.54;105804;1286;22459;-82
2023/01/03 10:51:58;;;;;;;4.50;3.10;;;;;;;8.19;74.76;97672.35;105871;1301;25257;-82
2023/01/03 10:54:45;;;;;;;5.20;2.80;;;;;;;8.20;74.87;97669.25;105538;1287;28587;-82
2023/01/03 10:57:38;;;;;;;6.40;3.60;;;;;;;8.18;75.21;97675.88;105794;1288;22502;-82
2023/01/03 11:00:29;;;;;;;7.60;4.20;;;;;;;8.21;75.65;97675.92;105764;1290;22586;-80
2023/01/03 11:03:13;;;;;;;7.10;4.10;;;;;;;8.31;75.88;97677.55;105822;1286;28634;-82
2023/01/03 11:05:50;;;;;;;3.90;2.70;;;;;;;8.39;75.99;97671.38;106045;1302;22762;-81
2023/01/03 11:08:35;;;;;;;6.40;4.00;;;;;;;8.42;75.87;97671.86;105616;1305;184711;-81
2023/01/03 11:11:15;;;;;;;5.60;3.70;;;;;;;8.40;75.68;97670.98;105570;1305;25232;-81
2023/01/03 11:13:47;;;;;;;8.40;4.30;;;;;;;8.41;75.19;97670.47;106201;1301;23989;-81
2023/01/03 11:16:20;;;;;;;5.90;4.40;;;;;;;8.48;75.24;97668.17;105759;1303;22506;-81
2023/01/03 11:19:04;;;;;;;8.10;4.30;;;;;;;8.57;75.16;97667.80;105727;1283;23161;-81
2023/01/03 11:21:45;;;;;;;6.10;4.40;;;;;;;8.64;74.98;97669.77;105791;1302;22477;-81
2023/01/03 11:24:19;;;;;;;;;;;;;;;8.61;74.91;97669.14;105491;1302;62502;-81
2023/01/03 11:27:00;;;;;;;6.40;3.90;;;;;;;8.51;74.64;97670.33;105395;1305;22519;-81
2023/01/03 11:29:44;;;;;;;6.60;4.00;;;;;;;8.38;74.72;97667.73;105380;1300;22977;-81
2023/01/03 11:32:34;;;;;;;14.30;6.80;;;;;;;8.31;74.69;97665.38;105439;1305;58487;-82
2023/01/03 11:35:38;;;;;;;7.90;5.60;;;;;;;8.24;74.64;97669.20;105526;1304;22465;-81
2023/01/03 11:38:24;;;;;;;14.70;9.60;;;;;;;8.29;75.29;97663.39;105482;1304;22504;-81
2023/01/03 11:41:19;;;;;;;5.90;3.80;;;;;;;8.32;74.58;97655.45;105565;1301;23912;-81
2023/01/03 11:44:10;;;;;;;6.80;4.70;;;;;;;8.26;74.73;97658.77;105611;1293;24376;-81
2023/01/03 11:46:57;;;;;;;7.80;5.00;;;;;;;8.25;74.93;97659.98;105472;1309;22527;-81
2023/01/03 11:49:40;;;;;;;5.10;3.20;;;;;;;8.28;75.01;97657.23;105394;1306;22466;-82
2023/01/03 11:52:24;;;;;;;5.60;3.70;;;;;;;8.31;74.47;97665.17;105426;1301;22467;-81
2023/01/03 11:55:29;;;;;;;6.60;4.00;;;;;;;8.32;74.09;97662.32;105603;1292;23842;-81
2023/01/03 11:58:14;;;;;;;5.50;3.90;;;;;;;8.31;73.85;97663.37;105574;1284;22470;-81
2023/01/03 12:00:54;;;;;;;5.60;3.90;;;;;;;8.32;73.45;97665.61;105649;1300;22511;-81
2023/01/03 12:03:48;;;;;;;5.20;3.40;;;;;;;8.35;72.94;97664.61;105528;1302;52795;-81
2023/01/03 12:06:27;;;;;;;4.30;3.10;;;;;;;8.38;72.53;97660.27;105547;1301;25358;-81
2023/01/03 12:09:11;;;;;;;6.60;3.70;;;;;;;8.36;71.92;97652.95;105643;1303;22553;-81
2023/01/03 12:12:19;;;;;;;5.20;2.90;;;;;;;8.36;71.24;97654.50;105632;1303;22499;-82
2023/01/03 12:14:55;;;;;;;5.90;3.40;;;;;;;8.37;70.65;97655.34;105497;1305;22840;-81
2023/01/03 12:17:34;;;;;;;4.80;3.10;;;;;;;8.36;70.66;97652.70;105463;1304;22466;-81
2023/01/03 12:20:15;;;;;;;5.60;3.00;;;;;;;8.34;70.29;97655.30;105607;1304;22636;-82
2023/01/03 12:22:52;;;;;;;6.50;3.80;;;;;;;8.26;69.92;97647.77;105574;1303;49374;-81
2023/01/03 12:25:30;;;;;;;5.50;3.10;;;;;;;8.19;70.12;97649.11;105637;1280;23386;-81
2023/01/03 12:28:12;;;;;;;5.20;2.80;;;;;;;8.16;69.96;97645.96;105561;1305;22511;-81
2023/01/03 12:30:48;;;;;;;5.40;3.30;;;;;;;8.14;69.98;97644.13;105430;1290;22460;-82
2023/01/03 12:33:31;;;;;;;5.20;3.60;;;;;;;8.14;69.96;97643.56;105524;1298;24231;-82
2023/01/03 12:36:11;;;;;;;6.20;3.30;;;;;;;8.13;69.75;97640.30;105547;1304;22462;-82
2023/01/03 12:38:46;;;;;;;5.90;3.30;;;;;;;8.11;69.99;97647.04;105435;1306;22637;-81
2023/01/03 12:41:26;;;;;;;13.50;9.00;;;;;;;8.12;70.35;97650.55;105576;1294;22507;-81
2023/01/03 12:44:03;;;;;;;24.00;12.10;;;;;;;8.12;70.36;97655.61;105534;1300;29380;-81
2023/01/03 12:46:39;;;;;;;13.90;8.30;;;;;;;8.10;70.32;97647.92;105569;1302;22502;-81
2023/01/03 12:49:16;;;;;;;12.70;6.90;;;;;;;8.09;70.56;97651.13;105596;1296;22459;-81
2023/01/03 12:51:48;;;;;;;12.80;5.60;;;;;;;8.06;70.43;97645.79;105574;1300;24318;-81
2023/01/03 12:54:33;;;;;;;7.40;4.20;;;;;;;8.00;70.27;97647.67;105373;1287;22525;-81
2023/01/03 12:57:38;;;;;;;5.80;3.50;;;;;;;7.97;70.07;97646.41;105511;1294;22473;-81
2023/01/03 13:00:25;;;;;;;4.40;2.30;;;;;;;7.94;69.52;97644.88;105449;1304;22630;-80
2023/01/03 13:03:01;;;;;;;4.50;2.60;;;;;;;7.89;68.67;97644.42;105419;1288;34636;-81
2023/01/03 13:05:42;;;;;;;4.90;3.00;;;;;;;7.88;69.19;97649.90;105428;1291;22488;-81
2023/01/03 13:08:25;;;;;;;5.00;3.00;;;;;;;7.88;69.52;97650.99;105462;1288;22498;-81
2023/01/03 13:11:01;;;;;;;4.10;2.80;;;;;;;7.90;69.48;97649.66;105476;1296;24366;-81
2023/01/03 13:13:35;;;;;;;5.50;3.30;;;;;;;7.91;69.17;97648.52;105415;1286;22650;-81
2023/01/03 13:16:42;;;;;;;4.10;2.90;;;;;;;7.91;69.05;97646.79;105453;1301;25408;-81
2023/01/03 13:19:47;;;;;;;5.70;3.10;;;;;;;7.93;69.15;97648.30;105397;1304;26655;-81
2023/01/03 13:22:52;;;;;;;5.10;2.80;;;;;;;7.94;69.15;97649.90;105560;1287;24808;-85